Terminal Aerodrome Forecast
Issued by NWS Medford, OR

Home | Current Version | Previous Version | Text Only | Print | Product List | Glossary On
Versions: 1 2 3 4 5 6 7 8 9 10 11 12
000
FTUS46 KMFR 291729
TAFMFR
TAF
KMFR 291729Z 2918/3018 VRB03KT P6SM SKC
     FM292300 30010G16KT P6SM SCT060 BKN150
     FM300600 35003KT P6SM FEW060 BKN150=

USA.gov is the U.S. government's official web portal to all federal, state and local government web resources and services.